createdAt,value
2016-09-18T00:00:10.111Z,21.16
2016-09-18T00:00:50.804Z,21.16
2016-09-18T00:01:31.455Z,21.16
2016-09-18T00:02:12.119Z,21.12
2016-09-18T00:02:52.792Z,21.09
2016-09-18T00:03:33.557Z,21.1
2016-09-18T00:04:14.271Z,21.12
2016-09-18T00:04:55.009Z,21.19
2016-09-18T00:05:35.654Z,21.17
2016-09-18T00:06:16.293Z,21.1
2016-09-18T00:06:56.971Z,21.1
2016-09-18T00:07:37.647Z,21.1
2016-09-18T00:08:18.342Z,21.1
2016-09-18T00:08:58.993Z,21.12
2016-09-18T00:09:39.697Z,21.16
2016-09-18T00:10:20.382Z,21.13
2016-09-18T00:11:01.045Z,21.1
2016-09-18T00:11:41.709Z,21.12
2016-09-18T00:12:22.427Z,20.97
2016-09-18T00:13:03.106Z,21.06
2016-09-18T00:13:43.737Z,21.13
2016-09-18T00:14:24.411Z,21.1
2016-09-18T00:15:05.108Z,21.09
2016-09-18T00:15:45.796Z,21.03
2016-09-18T00:16:26.435Z,20.91
2016-09-18T00:17:07.130Z,20.97
2016-09-18T00:17:47.769Z,20.98
2016-09-18T00:18:28.483Z,20.89
2016-09-18T00:19:09.173Z,21.03
2016-09-18T00:19:49.816Z,21.01
2016-09-18T00:20:30.500Z,20.95
2016-09-18T00:21:11.166Z,20.94
2016-09-18T00:21:51.884Z,20.94
2016-09-18T00:22:32.542Z,20.95
2016-09-18T00:23:13.179Z,20.88
2016-09-18T00:23:53.855Z,20.91
2016-09-18T00:24:34.527Z,20.88
2016-09-18T00:25:15.239Z,20.89
2016-09-18T00:25:55.914Z,20.94
2016-09-18T00:26:36.599Z,20.91
2016-09-18T00:27:17.286Z,20.89
2016-09-18T00:27:58.006Z,20.95
2016-09-18T00:28:38.684Z,20.8
2016-09-18T00:29:19.380Z,20.85
2016-09-18T00:30:00.048Z,20.92
2016-09-18T00:30:40.691Z,20.89
2016-09-18T00:31:21.362Z,20.87
2016-09-18T00:32:02.051Z,20.82
2016-09-18T00:32:42.703Z,20.73
2016-09-18T00:33:23.400Z,20.88
2016-09-18T00:34:04.079Z,20.79
2016-09-18T00:34:44.723Z,20.87
2016-09-18T00:35:25.402Z,20.8
2016-09-18T00:36:06.092Z,20.88
2016-09-18T00:36:46.705Z,20.87
2016-09-18T00:37:27.421Z,20.87
2016-09-18T00:38:08.092Z,20.79
2016-09-18T00:38:48.787Z,20.87
2016-09-18T00:39:29.434Z,20.84
2016-09-18T00:40:10.132Z,20.88
2016-09-18T00:40:50.802Z,20.79
2016-09-18T00:41:31.520Z,20.79
2016-09-18T00:42:12.220Z,20.87
2016-09-18T00:42:52.941Z,20.84
2016-09-18T00:43:33.636Z,20.8
2016-09-18T00:44:14.336Z,20.76
2016-09-18T00:44:54.995Z,20.76
2016-09-18T00:45:35.628Z,20.85
2016-09-18T00:46:16.320Z,20.92
2016-09-18T00:46:57.006Z,21.04
2016-09-18T00:47:37.667Z,21.16
2016-09-18T00:48:18.357Z,21.21
2016-09-18T00:48:58.998Z,21.25
2016-09-18T00:49:39.695Z,21.35
2016-09-18T00:50:20.404Z,21.35
2016-09-18T00:51:01.060Z,21.37
2016-09-18T00:51:41.740Z,21.44
2016-09-18T00:52:22.441Z,21.5
2016-09-18T00:53:03.150Z,21.43
2016-09-18T00:53:43.818Z,21.58
2016-09-18T00:54:24.512Z,21.58
2016-09-18T00:55:05.186Z,21.64
2016-09-18T00:55:45.879Z,21.72
2016-09-18T00:56:26.532Z,21.77
2016-09-18T00:57:07.246Z,21.88
2016-09-18T00:57:47.940Z,21.84
2016-09-18T00:58:28.645Z,21.88
2016-09-18T00:59:09.316Z,21.98
2016-09-18T00:59:50.025Z,22.1
2016-09-18T01:00:30.668Z,22.12
2016-09-18T01:01:11.289Z,22.17
2016-09-18T01:01:51.979Z,22.2
2016-09-18T01:02:32.651Z,22.22
2016-09-18T01:03:13.349Z,22.3
2016-09-18T01:03:54.027Z,22.21
2016-09-18T01:04:34.730Z,22.31
2016-09-18T01:05:15.413Z,22.35
2016-09-18T01:05:56.065Z,22.43
2016-09-18T01:06:36.718Z,22.51
2016-09-18T01:07:17.392Z,22.51
2016-09-18T01:07:58.120Z,22.49
2016-09-18T01:08:38.825Z,22.57
2016-09-18T01:09:19.510Z,22.57
2016-09-18T01:10:00.171Z,22.57
2016-09-18T01:10:40.865Z,22.65
2016-09-18T01:11:21.599Z,22.67
2016-09-18T01:12:02.258Z,22.7
2016-09-18T01:12:42.930Z,22.68
2016-09-18T01:13:23.618Z,22.7
2016-09-18T01:14:04.326Z,22.64
2016-09-18T01:14:45.031Z,22.6
2016-09-18T01:15:25.676Z,22.55
2016-09-18T01:16:06.389Z,22.51
2016-09-18T01:16:47.079Z,22.54
2016-09-18T01:17:27.801Z,22.54
2016-09-18T01:18:08.432Z,22.52
2016-09-18T01:18:49.126Z,22.47
2016-09-18T01:19:29.757Z,22.46
2016-09-18T01:20:10.441Z,22.51
2016-09-18T01:20:51.165Z,22.42
2016-09-18T01:21:31.835Z,22.51
2016-09-18T01:22:12.537Z,22.46
2016-09-18T01:22:53.231Z,22.52
2016-09-18T01:23:33.903Z,22.43
2016-09-18T01:24:14.589Z,22.47
2016-09-18T01:24:55.319Z,22.51
2016-09-18T01:25:35.943Z,22.54
2016-09-18T01:26:16.674Z,22.55
2016-09-18T01:26:57.406Z,22.49
2016-09-18T01:27:38.064Z,22.57
2016-09-18T01:28:18.728Z,22.57
2016-09-18T01:28:59.373Z,22.47
2016-09-18T01:29:40.028Z,22.51
2016-09-18T01:30:20.748Z,22.51
2016-09-18T01:31:01.408Z,22.52
2016-09-18T01:31:42.069Z,22.52
2016-09-18T01:32:22.756Z,22.55
2016-09-18T01:33:03.478Z,22.52
2016-09-18T01:33:44.170Z,22.65
2016-09-18T01:34:24.845Z,22.55
2016-09-18T01:35:05.533Z,22.61
2016-09-18T01:35:46.241Z,22.58
2016-09-18T01:36:26.955Z,22.57
2016-09-18T01:37:07.669Z,22.64
2016-09-18T01:37:48.363Z,22.55
2016-09-18T01:38:28.984Z,22.62
2016-09-18T01:39:09.671Z,22.58
2016-09-18T01:39:50.378Z,22.54
2016-09-18T01:40:31.048Z,22.54
2016-09-18T01:41:11.772Z,22.57
2016-09-18T01:41:52.456Z,22.57
2016-09-18T01:42:33.157Z,22.67
2016-09-18T01:43:13.826Z,22.67
2016-09-18T01:43:54.522Z,22.68
2016-09-18T01:44:35.220Z,22.64
2016-09-18T01:45:15.886Z,22.65
2016-09-18T01:45:56.560Z,22.68
2016-09-18T01:46:37.245Z,22.7
2016-09-18T01:47:17.940Z,22.7
2016-09-18T01:47:58.672Z,22.62
2016-09-18T01:48:39.355Z,22.65
2016-09-18T01:49:20.050Z,22.72
2016-09-18T01:50:00.743Z,22.68
2016-09-18T01:50:41.442Z,22.72
2016-09-18T01:51:22.079Z,22.7
2016-09-18T01:52:02.794Z,22.82
2016-09-18T01:52:43.452Z,22.83
2016-09-18T01:53:24.096Z,22.85
2016-09-18T01:54:04.779Z,22.72
2016-09-18T01:54:45.485Z,22.8
2016-09-18T01:55:26.183Z,22.75
2016-09-18T01:56:06.838Z,22.77
2016-09-18T01:56:47.516Z,22.73
2016-09-18T01:57:28.228Z,22.82
2016-09-18T01:58:08.972Z,22.83
2016-09-18T01:58:49.662Z,22.82
2016-09-18T01:59:30.323Z,22.82
2016-09-18T02:00:10.998Z,22.86
2016-09-18T02:00:51.693Z,22.82
2016-09-18T02:01:32.430Z,22.86
2016-09-18T02:02:13.114Z,22.85
2016-09-18T02:02:53.799Z,22.88
2016-09-18T02:03:34.411Z,22.9
2016-09-18T02:04:15.118Z,22.91
2016-09-18T02:04:55.789Z,22.82
2016-09-18T02:05:36.503Z,22.8
2016-09-18T02:06:17.164Z,22.9
2016-09-18T02:06:57.881Z,22.83
2016-09-18T02:07:38.556Z,22.85
2016-09-18T02:08:19.262Z,22.7
2016-09-18T02:08:59.896Z,22.54
2016-09-18T02:09:40.568Z,22.49
2016-09-18T02:10:21.221Z,22.4
2016-09-18T02:11:01.901Z,22.25
2016-09-18T02:11:42.589Z,22.27
2016-09-18T02:12:23.243Z,22.14
2016-09-18T02:13:03.939Z,22.1
2016-09-18T02:13:44.674Z,22
2016-09-18T02:14:25.330Z,21.9
2016-09-18T02:15:06.041Z,21.82
2016-09-18T02:15:46.696Z,21.72
2016-09-18T02:16:27.351Z,21.71
2016-09-18T02:17:08.028Z,21.67
2016-09-18T02:17:48.675Z,21.72
2016-09-18T02:18:29.381Z,21.61
2016-09-18T02:19:10.078Z,21.61
2016-09-18T02:19:50.766Z,21.61
2016-09-18T02:20:31.458Z,21.59
2016-09-18T02:21:12.119Z,21.42
2016-09-18T02:21:52.790Z,21.46
2016-09-18T02:22:33.486Z,21.42
2016-09-18T02:23:14.190Z,21.4
2016-09-18T02:23:54.938Z,21.35
2016-09-18T02:24:35.594Z,21.4
2016-09-18T02:25:16.241Z,21.27
2016-09-18T02:25:56.943Z,21.31
2016-09-18T02:26:37.616Z,21.31
2016-09-18T02:27:18.282Z,21.32
2016-09-18T02:27:59.009Z,21.27
2016-09-18T02:28:39.733Z,21.28
2016-09-18T02:29:20.400Z,21.27
2016-09-18T02:30:01.074Z,21.31
2016-09-18T02:30:41.743Z,21.22
2016-09-18T02:31:22.459Z,21.16
2016-09-18T02:32:03.157Z,21.14
2016-09-18T02:32:43.861Z,21.09
2016-09-18T02:33:24.522Z,21.19
2016-09-18T02:34:05.151Z,21.16
2016-09-18T02:34:45.848Z,21.16
2016-09-18T02:35:26.556Z,21.04
2016-09-18T02:36:07.235Z,21.09
2016-09-18T02:36:47.919Z,21.04
2016-09-18T02:37:28.568Z,21.01
2016-09-18T02:38:09.214Z,21.03
2016-09-18T02:38:49.919Z,20.89
2016-09-18T02:39:30.590Z,20.97
2016-09-18T02:40:11.262Z,20.94
2016-09-18T02:40:51.929Z,20.94
2016-09-18T02:41:32.598Z,21.06
2016-09-18T02:42:13.321Z,21.03
2016-09-18T02:42:53.980Z,20.97
2016-09-18T02:43:34.675Z,20.92
2016-09-18T02:44:15.371Z,20.98
2016-09-18T02:44:56.048Z,20.97
2016-09-18T02:45:36.694Z,20.79
2016-09-18T02:46:17.403Z,20.89
2016-09-18T02:46:58.082Z,20.94
2016-09-18T02:47:38.762Z,20.91
2016-09-18T02:48:19.427Z,20.95
2016-09-18T02:49:00.127Z,20.91
2016-09-18T02:49:40.783Z,20.91
2016-09-18T02:50:21.487Z,20.92
2016-09-18T02:51:02.204Z,20.91
2016-09-18T02:51:42.888Z,20.87
2016-09-18T02:52:23.544Z,20.82
2016-09-18T02:53:04.224Z,20.84
2016-09-18T02:53:44.906Z,20.88
2016-09-18T02:54:25.599Z,20.97
2016-09-18T02:55:06.336Z,20.89
2016-09-18T02:55:47.041Z,20.89
2016-09-18T02:56:27.688Z,20.84
2016-09-18T02:57:08.354Z,20.94
2016-09-18T02:57:49.051Z,20.94
2016-09-18T02:58:29.742Z,20.85
2016-09-18T02:59:10.434Z,20.84
2016-09-18T02:59:51.137Z,20.77
2016-09-18T03:00:31.830Z,20.72
2016-09-18T03:01:12.493Z,20.79
2016-09-18T03:01:53.198Z,20.79
2016-09-18T03:02:33.879Z,20.82
2016-09-18T03:03:14.574Z,20.8
2016-09-18T03:03:55.291Z,20.74
2016-09-18T03:04:35.959Z,20.84
2016-09-18T03:05:16.652Z,20.89
2016-09-18T03:05:57.312Z,20.82
2016-09-18T03:06:38.072Z,20.82
2016-09-18T03:07:18.790Z,20.82
2016-09-18T03:07:59.483Z,20.76
2016-09-18T03:08:40.189Z,20.84
2016-09-18T03:09:20.926Z,20.76
2016-09-18T03:10:01.579Z,20.8
2016-09-18T03:10:42.233Z,20.82
2016-09-18T03:11:22.929Z,20.77
2016-09-18T03:12:03.570Z,20.76
2016-09-18T03:12:44.283Z,20.82
2016-09-18T03:13:24.946Z,20.79
2016-09-18T03:14:05.624Z,20.76
2016-09-18T03:14:46.295Z,20.82
2016-09-18T03:15:26.990Z,20.8
2016-09-18T03:16:07.669Z,20.84
2016-09-18T03:16:48.339Z,20.8
2016-09-18T03:17:29.024Z,20.77
2016-09-18T03:18:09.705Z,20.77
2016-09-18T03:18:50.412Z,20.8
2016-09-18T03:19:31.082Z,20.77
2016-09-18T03:20:11.774Z,20.77
2016-09-18T03:20:52.518Z,20.74
2016-09-18T03:21:33.178Z,20.79
2016-09-18T03:22:13.856Z,20.74
2016-09-18T03:22:54.543Z,20.76
2016-09-18T03:23:35.207Z,20.8
2016-09-18T03:24:15.900Z,20.73
2016-09-18T03:24:56.590Z,20.74
2016-09-18T03:25:37.258Z,20.8
2016-09-18T03:26:17.971Z,20.76
2016-09-18T03:26:58.640Z,20.77
2016-09-18T03:27:39.318Z,20.77
2016-09-18T03:28:20.004Z,20.79
2016-09-18T03:29:00.739Z,20.74
2016-09-18T03:29:41.399Z,20.7
2016-09-18T03:30:22.092Z,20.67
2016-09-18T03:31:02.777Z,20.72
2016-09-18T03:31:43.437Z,20.8
2016-09-18T03:32:24.066Z,20.66
2016-09-18T03:33:04.751Z,20.7
2016-09-18T03:33:45.426Z,20.69
2016-09-18T03:34:26.055Z,20.61
2016-09-18T03:35:06.721Z,20.61
2016-09-18T03:35:47.386Z,20.79
2016-09-18T03:36:28.092Z,20.8
2016-09-18T03:37:08.751Z,20.94
2016-09-18T03:37:49.391Z,21.04
2016-09-18T03:38:30.068Z,21.12
2016-09-18T03:39:10.796Z,21.1
2016-09-18T03:39:51.492Z,21.34
2016-09-18T03:40:32.209Z,21.34
2016-09-18T03:41:12.857Z,21.35
2016-09-18T03:41:53.528Z,21.42
2016-09-18T03:42:34.218Z,21.4
2016-09-18T03:43:14.895Z,21.42
2016-09-18T03:43:55.608Z,21.56
2016-09-18T03:44:36.294Z,21.56
2016-09-18T03:45:16.976Z,21.62
2016-09-18T03:45:57.656Z,21.61
2016-09-18T03:46:38.326Z,21.75
2016-09-18T03:47:18.980Z,21.74
2016-09-18T03:47:59.674Z,21.82
2016-09-18T03:48:40.362Z,21.86
2016-09-18T03:49:21.079Z,21.8
2016-09-18T03:50:01.744Z,21.98
2016-09-18T03:50:42.461Z,22.09
2016-09-18T03:51:23.143Z,22.07
2016-09-18T03:52:03.845Z,22.06
2016-09-18T03:52:44.555Z,22.03
2016-09-18T03:53:25.256Z,22.14
2016-09-18T03:54:05.939Z,22.12
2016-09-18T03:54:46.667Z,22.1
2016-09-18T03:55:27.361Z,22.12
2016-09-18T03:56:08.003Z,22.14
2016-09-18T03:56:48.720Z,22.12
2016-09-18T03:57:29.401Z,22.25
2016-09-18T03:58:10.095Z,22.18
2016-09-18T03:58:50.745Z,22.24
2016-09-18T03:59:31.448Z,22.25
2016-09-18T04:00:12.127Z,22.24
2016-09-18T04:00:52.824Z,22.3
2016-09-18T04:01:33.458Z,22.27
2016-09-18T04:02:14.144Z,22.33
2016-09-18T04:02:54.824Z,22.39
2016-09-18T04:03:35.466Z,22.31
2016-09-18T04:04:16.129Z,22.39
2016-09-18T04:04:56.809Z,22.39
2016-09-18T04:05:37.528Z,22.4
2016-09-18T04:06:18.224Z,22.43
2016-09-18T04:06:58.927Z,22.42
2016-09-18T04:07:39.597Z,22.49
2016-09-18T04:08:20.261Z,22.55
2016-09-18T04:09:00.933Z,22.49
2016-09-18T04:09:41.600Z,22.51
2016-09-18T04:10:22.254Z,22.47
2016-09-18T04:11:02.967Z,22.52
2016-09-18T04:11:43.630Z,22.61
2016-09-18T04:12:24.319Z,22.57
2016-09-18T04:13:04.986Z,22.64
2016-09-18T04:13:45.670Z,22.55
2016-09-18T04:14:26.387Z,22.58
2016-09-18T04:15:07.098Z,22.64
2016-09-18T04:15:47.764Z,22.55
2016-09-18T04:16:28.398Z,22.55
2016-09-18T04:17:09.058Z,22.58
2016-09-18T04:17:49.760Z,22.6
2016-09-18T04:18:30.446Z,22.72
2016-09-18T04:19:11.067Z,22.61
2016-09-18T04:19:51.719Z,22.72
2016-09-18T04:20:32.434Z,22.68
2016-09-18T04:21:13.081Z,22.68
2016-09-18T04:21:53.782Z,22.68
2016-09-18T04:22:34.437Z,22.67
2016-09-18T04:23:15.177Z,22.73
2016-09-18T04:23:55.858Z,22.82
2016-09-18T04:24:36.522Z,22.7
2016-09-18T04:25:17.224Z,22.77
2016-09-18T04:25:57.926Z,22.77
2016-09-18T04:26:38.606Z,22.76
2016-09-18T04:27:19.272Z,22.77
2016-09-18T04:27:59.998Z,22.8
2016-09-18T04:28:40.681Z,22.79
2016-09-18T04:29:21.337Z,22.83
2016-09-18T04:30:02.027Z,22.82
2016-09-18T04:30:42.710Z,22.83
2016-09-18T04:31:23.372Z,22.85
2016-09-18T04:32:04.084Z,22.9
2016-09-18T04:32:44.755Z,22.9
2016-09-18T04:33:25.401Z,22.95
2016-09-18T04:34:06.079Z,22.9
2016-09-18T04:34:46.805Z,22.92
2016-09-18T04:35:27.447Z,22.83
2016-09-18T04:36:08.135Z,22.82
2016-09-18T04:36:48.797Z,22.85
2016-09-18T04:37:29.486Z,22.92
2016-09-18T04:38:10.159Z,22.9
2016-09-18T04:38:50.879Z,22.92
2016-09-18T04:39:31.531Z,23
2016-09-18T04:40:12.199Z,23
2016-09-18T04:40:52.889Z,22.98
2016-09-18T04:41:33.538Z,23.02
2016-09-18T04:42:14.232Z,23.04
2016-09-18T04:42:54.899Z,23.02
2016-09-18T04:43:35.590Z,22.94
2016-09-18T04:44:16.249Z,22.95
2016-09-18T04:44:56.904Z,23.04
2016-09-18T04:45:37.606Z,23.02
2016-09-18T04:46:18.264Z,23.02
2016-09-18T04:46:58.944Z,23.04
2016-09-18T04:47:39.650Z,23.1
2016-09-18T04:48:20.325Z,23.07
2016-09-18T04:49:01.023Z,23.09
2016-09-18T04:49:41.707Z,23.09
2016-09-18T04:50:22.421Z,23.15
2016-09-18T04:51:03.135Z,23.09
2016-09-18T04:51:43.799Z,23.13
2016-09-18T04:52:24.517Z,23.16
2016-09-18T04:53:05.187Z,23.15
2016-09-18T04:53:45.884Z,23.17
2016-09-18T04:54:26.524Z,23.12
2016-09-18T04:55:07.212Z,23.13
2016-09-18T04:55:47.909Z,23.15
2016-09-18T04:56:28.588Z,23.15
2016-09-18T04:57:09.276Z,23.12
2016-09-18T04:57:49.997Z,23.1
2016-09-18T04:58:30.682Z,23.2
2016-09-18T04:59:11.361Z,23.12
2016-09-18T04:59:52.005Z,23.15
2016-09-18T05:00:32.667Z,23.19
2016-09-18T05:01:13.342Z,23.25
2016-09-18T05:01:54.016Z,23.13
2016-09-18T05:02:34.723Z,23.16
2016-09-18T05:03:15.386Z,23.25
2016-09-18T05:03:56.092Z,23.16
2016-09-18T05:04:36.774Z,23.25
2016-09-18T05:05:17.476Z,23.16
2016-09-18T05:05:58.143Z,23.2
2016-09-18T05:06:38.837Z,23.27
2016-09-18T05:07:19.548Z,23.19
2016-09-18T05:08:00.224Z,23.32
2016-09-18T05:08:40.902Z,23.17
2016-09-18T05:09:21.660Z,23.27
2016-09-18T05:10:02.346Z,23.22
2016-09-18T05:10:42.971Z,23.22
2016-09-18T05:11:23.650Z,23.2
2016-09-18T05:12:04.336Z,23.2
2016-09-18T05:12:45.034Z,23.23
2016-09-18T05:13:25.703Z,23.19
2016-09-18T05:14:06.366Z,23.22
2016-09-18T05:14:47.024Z,23.22
2016-09-18T05:15:27.694Z,23.25
2016-09-18T05:16:08.404Z,23.25
2016-09-18T05:16:49.081Z,23.2
2016-09-18T05:17:29.763Z,23.25
2016-09-18T05:18:10.408Z,23.25
2016-09-18T05:18:51.115Z,23.28
2016-09-18T05:19:31.774Z,23.23
2016-09-18T05:20:12.419Z,23.27
2016-09-18T05:20:53.121Z,23.28
2016-09-18T05:21:33.796Z,23.31
2016-09-18T05:22:14.483Z,23.32
2016-09-18T05:22:55.250Z,23.27
2016-09-18T05:23:35.934Z,23.16
2016-09-18T05:24:16.577Z,22.98
2016-09-18T05:24:57.314Z,22.85
2016-09-18T05:25:37.974Z,22.75
2016-09-18T05:26:18.649Z,22.55
2016-09-18T05:26:59.322Z,22.55
2016-09-18T05:27:39.973Z,22.36
2016-09-18T05:28:20.706Z,22.25
2016-09-18T05:29:01.363Z,22.2
2016-09-18T05:29:42.038Z,22.15
2016-09-18T05:30:22.772Z,22.14
2016-09-18T05:31:03.437Z,22.02
2016-09-18T05:31:44.131Z,21.82
2016-09-18T05:32:24.861Z,21.8
2016-09-18T05:33:05.501Z,21.79
2016-09-18T05:33:46.211Z,21.79
2016-09-18T05:34:26.915Z,21.71
2016-09-18T05:35:07.579Z,21.74
2016-09-18T05:35:48.242Z,21.67
2016-09-18T05:36:28.923Z,21.65
2016-09-18T05:37:09.615Z,21.47
2016-09-18T05:37:50.291Z,21.49
2016-09-18T05:38:30.918Z,21.44
2016-09-18T05:39:11.632Z,21.58
2016-09-18T05:39:52.295Z,21.52
2016-09-18T05:40:33.019Z,21.44
2016-09-18T05:41:13.651Z,21.47
2016-09-18T05:41:54.280Z,21.38
2016-09-18T05:42:34.936Z,21.35
2016-09-18T05:43:15.600Z,21.38
2016-09-18T05:43:56.292Z,21.38
2016-09-18T05:44:36.897Z,21.4
2016-09-18T05:45:17.578Z,21.35
2016-09-18T05:45:58.263Z,21.35
2016-09-18T05:46:38.946Z,21.31
2016-09-18T05:47:19.627Z,21.31
2016-09-18T05:48:00.292Z,21.43
2016-09-18T05:48:40.969Z,21.49
2016-09-18T05:49:21.661Z,21.61
2016-09-18T05:50:02.370Z,21.62
2016-09-18T05:50:43.044Z,21.62
2016-09-18T05:51:23.713Z,21.74
2016-09-18T05:52:04.390Z,21.68
2016-09-18T05:52:45.075Z,21.67
2016-09-18T05:53:25.782Z,21.65
2016-09-18T05:54:06.454Z,21.49
2016-09-18T05:54:47.162Z,21.44
2016-09-18T05:55:27.845Z,21.44
2016-09-18T05:56:08.523Z,21.46
2016-09-18T05:56:49.245Z,21.46
2016-09-18T05:57:29.969Z,21.44
2016-09-18T05:58:10.648Z,21.4
2016-09-18T05:58:51.365Z,21.44
2016-09-18T05:59:32.003Z,21.43
2016-09-18T06:00:12.680Z,21.4
2016-09-18T06:00:53.352Z,21.42
2016-09-18T06:01:34.008Z,21.44
2016-09-18T06:02:14.699Z,21.43
2016-09-18T06:02:55.344Z,21.43
2016-09-18T06:03:36.027Z,21.38
2016-09-18T06:04:16.713Z,21.42
2016-09-18T06:04:57.357Z,21.28
2016-09-18T06:05:38.047Z,21.38
2016-09-18T06:06:18.668Z,21.29
2016-09-18T06:06:59.378Z,21.32
2016-09-18T06:07:40.052Z,21.31
2016-09-18T06:08:20.734Z,21.22
2016-09-18T06:09:01.431Z,21.21
2016-09-18T06:09:42.081Z,21.22
2016-09-18T06:10:22.749Z,21.24
2016-09-18T06:11:03.383Z,21.25
2016-09-18T06:11:44.091Z,21.1
2016-09-18T06:12:24.754Z,21.16
2016-09-18T06:13:05.442Z,21.14
2016-09-18T06:13:46.124Z,21.07
2016-09-18T06:14:26.800Z,21.01
2016-09-18T06:15:07.479Z,21.07
2016-09-18T06:15:48.182Z,21.01
2016-09-18T06:16:28.900Z,20.94
2016-09-18T06:17:09.588Z,21.06
2016-09-18T06:17:50.272Z,21.03
2016-09-18T06:18:30.916Z,20.99
2016-09-18T06:19:11.604Z,20.97
2016-09-18T06:19:52.280Z,20.95
2016-09-18T06:20:32.941Z,20.91
2016-09-18T06:21:13.645Z,20.97
2016-09-18T06:21:54.347Z,20.98
2016-09-18T06:22:35.032Z,20.89
2016-09-18T06:23:15.758Z,20.88
2016-09-18T06:23:56.467Z,20.92
2016-09-18T06:24:37.144Z,20.84
2016-09-18T06:25:17.768Z,20.82
2016-09-18T06:25:58.460Z,20.87
2016-09-18T06:26:39.096Z,20.85
2016-09-18T06:27:19.758Z,20.85
2016-09-18T06:28:00.437Z,20.77
2016-09-18T06:28:41.160Z,20.77
2016-09-18T06:29:21.847Z,20.73
2016-09-18T06:30:02.506Z,20.73
2016-09-18T06:30:43.224Z,20.77
2016-09-18T06:31:23.887Z,20.8
2016-09-18T06:32:04.574Z,20.82
2016-09-18T06:32:45.234Z,20.74
2016-09-18T06:33:25.946Z,20.85
2016-09-18T06:34:06.590Z,20.88
2016-09-18T06:34:47.264Z,20.95
2016-09-18T06:35:27.923Z,20.88
2016-09-18T06:36:08.619Z,20.87
2016-09-18T06:36:49.288Z,20.92
2016-09-18T06:37:29.972Z,20.79
2016-09-18T06:38:10.613Z,20.88
2016-09-18T06:38:51.262Z,20.92
2016-09-18T06:39:31.924Z,21.03
2016-09-18T06:40:12.596Z,21.16
2016-09-18T06:40:53.275Z,21.17
2016-09-18T06:41:33.987Z,21.31
2016-09-18T06:42:14.689Z,21.35
2016-09-18T06:42:55.376Z,21.38
2016-09-18T06:43:36.034Z,21.42
2016-09-18T06:44:16.756Z,21.35
2016-09-18T06:44:57.423Z,21.47
2016-09-18T06:45:38.121Z,21.5
2016-09-18T06:46:18.803Z,21.58
2016-09-18T06:46:59.446Z,21.58
2016-09-18T06:47:40.097Z,21.67
2016-09-18T06:48:20.854Z,21.74
2016-09-18T06:49:01.502Z,21.88
2016-09-18T06:49:42.173Z,21.77
2016-09-18T06:50:22.903Z,21.86
2016-09-18T06:51:03.556Z,21.98
2016-09-18T06:51:44.278Z,21.99
2016-09-18T06:52:24.957Z,22.02
2016-09-18T06:53:05.626Z,22.14
2016-09-18T06:53:46.341Z,22.14
2016-09-18T06:54:27.039Z,22.21
2016-09-18T06:55:07.734Z,22.25
2016-09-18T06:55:48.434Z,22.3
2016-09-18T06:56:29.143Z,22.25
2016-09-18T06:57:09.819Z,22.28
2016-09-18T06:57:50.448Z,22.37
2016-09-18T06:58:31.107Z,22.42
2016-09-18T06:59:11.790Z,22.4
2016-09-18T06:59:52.444Z,22.39
2016-09-18T07:00:33.149Z,22.54
2016-09-18T07:01:13.825Z,22.47
2016-09-18T07:01:54.504Z,22.58
2016-09-18T07:02:35.197Z,22.58
2016-09-18T07:03:15.925Z,22.58
2016-09-18T07:03:56.581Z,22.57
2016-09-18T07:04:37.264Z,22.57
2016-09-18T07:05:17.954Z,22.6
2016-09-18T07:05:58.663Z,22.6
2016-09-18T07:06:39.328Z,22.57
2016-09-18T07:07:19.996Z,22.57
2016-09-18T07:08:00.664Z,22.62
2016-09-18T07:08:41.320Z,22.52
2016-09-18T07:09:22.018Z,22.68
2016-09-18T07:10:02.734Z,22.7
2016-09-18T07:10:43.383Z,22.67
2016-09-18T07:11:24.048Z,22.65
2016-09-18T07:12:04.765Z,22.64
2016-09-18T07:12:45.433Z,22.72
2016-09-18T07:13:26.129Z,22.8
2016-09-18T07:14:06.774Z,22.77
2016-09-18T07:14:47.467Z,22.82
2016-09-18T07:15:28.167Z,22.76
2016-09-18T07:16:08.819Z,22.77
2016-09-18T07:16:49.544Z,22.82
2016-09-18T07:17:30.235Z,22.8
2016-09-18T07:18:10.920Z,22.88
2016-09-18T07:18:51.575Z,22.8
2016-09-18T07:19:32.277Z,22.86
2016-09-18T07:20:12.922Z,22.88
2016-09-18T07:20:53.626Z,22.88
2016-09-18T07:21:34.268Z,22.91
2016-09-18T07:22:14.944Z,22.92
2016-09-18T07:22:55.637Z,22.94
2016-09-18T07:23:36.310Z,22.94
2016-09-18T07:24:16.977Z,22.88
2016-09-18T07:24:57.662Z,23.04
2016-09-18T07:25:38.347Z,22.95
2016-09-18T07:26:18.965Z,23
2016-09-18T07:26:59.657Z,22.98
2016-09-18T07:27:40.346Z,23.1
2016-09-18T07:28:21.019Z,23.09
2016-09-18T07:29:01.720Z,23.12
2016-09-18T07:29:42.349Z,23.09
2016-09-18T07:30:23.053Z,23.15
2016-09-18T07:31:03.768Z,23.13
2016-09-18T07:31:44.428Z,23.1
2016-09-18T07:32:25.083Z,23.16
2016-09-18T07:33:05.755Z,23.12
2016-09-18T07:33:46.423Z,23.16
2016-09-18T07:34:27.115Z,23.16
2016-09-18T07:35:07.751Z,23.13
2016-09-18T07:35:48.426Z,23.13
2016-09-18T07:36:29.124Z,23.16
2016-09-18T07:37:09.792Z,23.15
2016-09-18T07:37:50.526Z,23.17
2016-09-18T07:38:31.204Z,23.17
2016-09-18T07:39:11.858Z,23.23
2016-09-18T07:39:52.528Z,23.22
2016-09-18T07:40:33.209Z,23.17
2016-09-18T07:41:13.893Z,23.25
2016-09-18T07:41:54.599Z,23.15
2016-09-18T07:42:35.258Z,23.22
2016-09-18T07:43:15.946Z,23.27
2016-09-18T07:43:56.597Z,23.2
2016-09-18T07:44:37.291Z,23.2
2016-09-18T07:45:17.936Z,23.25
2016-09-18T07:45:58.635Z,23.23
2016-09-18T07:46:39.318Z,23.31
2016-09-18T07:47:20.001Z,23.27
2016-09-18T07:48:00.700Z,23.28
2016-09-18T07:48:41.397Z,23.33
2016-09-18T07:49:22.107Z,23.31
2016-09-18T07:50:02.804Z,23.31
2016-09-18T07:50:43.479Z,23.39
2016-09-18T07:51:24.197Z,23.43
2016-09-18T07:52:04.905Z,23.35
2016-09-18T07:52:45.565Z,23.38
2016-09-18T07:53:26.290Z,23.38
2016-09-18T07:54:06.925Z,23.36
2016-09-18T07:54:47.573Z,23.39
2016-09-18T07:55:28.214Z,23.43
2016-09-18T07:56:08.972Z,23.4
2016-09-18T07:56:49.669Z,23.43
2016-09-18T07:57:30.326Z,23.39
2016-09-18T07:58:11.032Z,23.33
2016-09-18T07:58:51.733Z,23.17
2016-09-18T07:59:32.408Z,23.05
2016-09-18T08:00:13.720Z,22.91
2016-09-18T08:00:54.416Z,22.77
2016-09-18T08:01:35.117Z,22.65
2016-09-18T08:02:15.788Z,22.55
2016-09-18T08:02:56.521Z,22.3
2016-09-18T08:03:37.228Z,22.25
2016-09-18T08:04:17.955Z,22.18
2016-09-18T08:04:58.607Z,22.14
2016-09-18T08:05:39.282Z,21.91
2016-09-18T08:06:19.950Z,21.99
2016-09-18T08:07:00.655Z,21.88
2016-09-18T08:07:41.347Z,21.94
2016-09-18T08:08:21.977Z,21.91
2016-09-18T08:09:02.688Z,21.86
2016-09-18T08:09:43.346Z,21.71
2016-09-18T08:10:24.039Z,21.74
2016-09-18T08:11:04.688Z,21.72
2016-09-18T08:11:45.417Z,21.56
2016-09-18T08:12:26.121Z,21.54
2016-09-18T08:13:06.824Z,21.61
2016-09-18T08:13:47.463Z,21.59
2016-09-18T08:14:28.162Z,21.62
2016-09-18T08:15:08.844Z,21.59
2016-09-18T08:15:49.581Z,21.58
2016-09-18T08:16:30.262Z,21.56
2016-09-18T08:17:10.951Z,21.53
2016-09-18T08:17:51.621Z,21.49
2016-09-18T08:18:32.327Z,21.52
2016-09-18T08:19:12.976Z,21.59
2016-09-18T08:19:53.670Z,21.5
2016-09-18T08:20:34.339Z,21.5
2016-09-18T08:21:14.991Z,21.46
2016-09-18T08:21:55.671Z,21.47
2016-09-18T08:22:36.308Z,21.32
2016-09-18T08:23:16.995Z,21.47
2016-09-18T08:23:57.666Z,21.44
2016-09-18T08:24:38.398Z,21.42
2016-09-18T08:25:19.087Z,21.43
2016-09-18T08:25:59.751Z,21.4
2016-09-18T08:26:40.474Z,21.43
2016-09-18T08:27:21.168Z,21.4
2016-09-18T08:28:01.799Z,21.38
2016-09-18T08:28:42.500Z,21.32
2016-09-18T08:29:23.198Z,21.4
2016-09-18T08:30:03.835Z,21.35
2016-09-18T08:30:44.521Z,21.32
2016-09-18T08:31:25.252Z,21.4
2016-09-18T08:32:05.926Z,21.43
2016-09-18T08:32:46.590Z,21.42
2016-09-18T08:33:27.286Z,21.43
2016-09-18T08:34:07.988Z,21.43
2016-09-18T08:34:48.722Z,21.46
2016-09-18T08:35:29.399Z,21.44
2016-09-18T08:36:10.109Z,21.56
2016-09-18T08:36:50.759Z,21.49
2016-09-18T08:37:31.508Z,21.43
2016-09-18T08:38:12.174Z,21.37
2016-09-18T08:38:52.856Z,21.35
2016-09-18T08:39:33.539Z,21.37
2016-09-18T08:40:14.248Z,21.42
2016-09-18T08:40:54.947Z,21.46
2016-09-18T08:41:35.646Z,21.37
2016-09-18T08:42:16.368Z,21.38
2016-09-18T08:42:57.038Z,21.37
2016-09-18T08:43:37.734Z,21.43
2016-09-18T08:44:18.463Z,21.4
2016-09-18T08:44:59.180Z,21.38
2016-09-18T08:45:39.837Z,21.25